sensor_id;sensor_type;location;lat;lon;timestamp;pressure;altitude;pressure_sealevel;temperature;humidity
39954;BME280;25631;51.516;-0.470;2023-04-05T00:00:44;102222.94;;;7.65;29.95
39954;BME280;25631;51.516;-0.470;2023-04-05T00:03:21;102222.26;;;7.44;29.97
39954;BME280;25631;51.516;-0.470;2023-04-05T00:05:57;102216.49;;;7.67;30.03
39954;BME280;25631;51.516;-0.470;2023-04-05T00:08:34;102217.13;;;7.38;30.07
39954;BME280;25631;51.516;-0.470;2023-04-05T00:11:10;102215.36;;;7.42;30.14
39954;BME280;25631;51.516;-0.470;2023-04-05T00:13:47;102216.02;;;7.72;30.16
39954;BME280;25631;51.516;-0.470;2023-04-05T00:16:23;102219.33;;;7.55;30.16
39954;BME280;25631;51.516;-0.470;2023-04-05T00:18:59;102218.49;;;7.38;30.14
39954;BME280;25631;51.516;-0.470;2023-04-05T00:21:36;102221.08;;;7.53;30.13
39954;BME280;25631;51.516;-0.470;2023-04-05T00:24:12;102222.21;;;7.56;30.11
39954;BME280;25631;51.516;-0.470;2023-04-05T00:26:49;102220.30;;;7.47;30.09
39954;BME280;25631;51.516;-0.470;2023-04-05T00:29:25;102216.99;;;7.48;30.11
39954;BME280;25631;51.516;-0.470;2023-04-05T00:32:03;102217.34;;;7.74;30.21
39954;BME280;25631;51.516;-0.470;2023-04-05T00:34:39;102210.44;;;7.17;30.32
39954;BME280;25631;51.516;-0.470;2023-04-05T00:37:16;102205.54;;;7.21;30.35
39954;BME280;25631;51.516;-0.470;2023-04-05T00:39:52;102201.13;;;7.62;30.43
39954;BME280;25631;51.516;-0.470;2023-04-05T00:42:29;102202.18;;;7.44;30.51
39954;BME280;25631;51.516;-0.470;2023-04-05T00:45:06;102200.25;;;7.25;30.62
39954;BME280;25631;51.516;-0.470;2023-04-05T00:47:43;102198.44;;;7.37;30.69
39954;BME280;25631;51.516;-0.470;2023-04-05T00:50:21;102197.40;;;7.46;30.73
39954;BME280;25631;51.516;-0.470;2023-04-05T00:52:57;102194.95;;;7.11;30.79
39954;BME280;25631;51.516;-0.470;2023-04-05T00:55:35;102189.33;;;7.61;30.83
39954;BME280;25631;51.516;-0.470;2023-04-05T00:58:11;102184.13;;;7.44;30.88
39954;BME280;25631;51.516;-0.470;2023-04-05T01:00:58;102177.45;;;7.23;30.93
39954;BME280;25631;51.516;-0.470;2023-04-05T01:03:37;102171.87;;;6.61;30.99
39954;BME280;25631;51.516;-0.470;2023-04-05T01:06:23;102167.25;;;7.35;31.02
39954;BME280;25631;51.516;-0.470;2023-04-05T01:09:07;102164.69;;;7.03;31.17
39954;BME280;25631;51.516;-0.470;2023-04-05T01:11:48;102159.88;;;7.04;31.29
39954;BME280;25631;51.516;-0.470;2023-04-05T01:14:25;102154.71;;;7.08;31.39
39954;BME280;25631;51.516;-0.470;2023-04-05T01:17:01;102150.89;;;6.95;31.49
39954;BME280;25631;51.516;-0.470;2023-04-05T01:19:38;102147.46;;;6.92;31.51
39954;BME280;25631;51.516;-0.470;2023-04-05T01:23:34;102143.44;;;6.53;31.57
39954;BME280;25631;51.516;-0.470;2023-04-05T01:26:34;102145.57;;;7.01;31.56
39954;BME280;25631;51.516;-0.470;2023-04-05T01:29:34;102143.13;;;6.88;31.63
39954;BME280;25631;51.516;-0.470;2023-04-05T01:32:24;102140.21;;;6.72;31.72
39954;BME280;25631;51.516;-0.470;2023-04-05T01:35:07;102130.26;;;6.88;31.72
39954;BME280;25631;51.516;-0.470;2023-04-05T01:37:48;102127.56;;;6.84;31.75
39954;BME280;25631;51.516;-0.470;2023-04-05T01:40:25;102133.65;;;6.81;31.81
39954;BME280;25631;51.516;-0.470;2023-04-05T01:43:10;102128.81;;;6.80;31.75
39954;BME280;25631;51.516;-0.470;2023-04-05T01:45:47;102121.19;;;6.80;31.68
39954;BME280;25631;51.516;-0.470;2023-04-05T01:48:24;102119.28;;;6.88;31.70
39954;BME280;25631;51.516;-0.470;2023-04-05T01:51:00;102115.46;;;7.18;31.73
39954;BME280;25631;51.516;-0.470;2023-04-05T01:53:36;102112.58;;;6.71;31.90
39954;BME280;25631;51.516;-0.470;2023-04-05T01:56:13;102109.26;;;6.51;32.05
39954;BME280;25631;51.516;-0.470;2023-04-05T01:58:49;102107.82;;;6.67;32.06
39954;BME280;25631;51.516;-0.470;2023-04-05T02:01:26;102107.14;;;6.76;32.19
39954;BME280;25631;51.516;-0.470;2023-04-05T02:04:02;102105.47;;;6.75;32.36
39954;BME280;25631;51.516;-0.470;2023-04-05T02:06:39;102102.26;;;6.36;32.22
39954;BME280;25631;51.516;-0.470;2023-04-05T02:09:15;102099.18;;;6.74;32.14
39954;BME280;25631;51.516;-0.470;2023-04-05T02:11:52;102097.76;;;6.50;32.11
39954;BME280;25631;51.516;-0.470;2023-04-05T02:14:28;102093.69;;;6.43;32.14
39954;BME280;25631;51.516;-0.470;2023-04-05T02:17:05;102093.80;;;6.22;32.15
39954;BME280;25631;51.516;-0.470;2023-04-05T02:19:41;102092.84;;;6.27;32.06
39954;BME280;25631;51.516;-0.470;2023-04-05T02:22:18;102090.39;;;6.29;32.12
39954;BME280;25631;51.516;-0.470;2023-04-05T02:24:54;102092.30;;;6.40;32.06
39954;BME280;25631;51.516;-0.470;2023-04-05T02:27:31;102088.55;;;6.33;32.06
39954;BME280;25631;51.516;-0.470;2023-04-05T02:30:08;102087.24;;;6.45;32.05
39954;BME280;25631;51.516;-0.470;2023-04-05T02:32:45;102090.69;;;6.37;32.01
39954;BME280;25631;51.516;-0.470;2023-04-05T02:35:21;102089.53;;;6.30;32.02
39954;BME280;25631;51.516;-0.470;2023-04-05T02:37:57;102085.14;;;6.04;31.94
39954;BME280;25631;51.516;-0.470;2023-04-05T02:40:34;102085.49;;;6.55;32.06
39954;BME280;25631;51.516;-0.470;2023-04-05T02:43:10;102082.95;;;6.23;32.16
39954;BME280;25631;51.516;-0.470;2023-04-05T02:45:47;102082.00;;;6.40;32.14
39954;BME280;25631;51.516;-0.470;2023-04-05T02:48:24;102079.21;;;6.27;32.28
39954;BME280;25631;51.516;-0.470;2023-04-05T02:51:00;102079.35;;;6.20;32.20
39954;BME280;25631;51.516;-0.470;2023-04-05T02:53:37;102075.87;;;6.35;32.17
39954;BME280;25631;51.516;-0.470;2023-04-05T02:56:13;102075.57;;;5.97;32.24
39954;BME280;25631;51.516;-0.470;2023-04-05T02:58:50;102074.87;;;6.01;32.29
39954;BME280;25631;51.516;-0.470;2023-04-05T03:01:26;102072.91;;;5.95;32.41
39954;BME280;25631;51.516;-0.470;2023-04-05T03:04:03;102067.21;;;5.89;32.45
39954;BME280;25631;51.516;-0.470;2023-04-05T03:06:39;102066.25;;;5.86;32.56
39954;BME280;25631;51.516;-0.470;2023-04-05T03:09:16;102067.08;;;5.85;32.52
39954;BME280;25631;51.516;-0.470;2023-04-05T03:11:52;102064.31;;;5.82;32.67
39954;BME280;25631;51.516;-0.470;2023-04-05T03:14:29;102063.58;;;5.89;32.59
39954;BME280;25631;51.516;-0.470;2023-04-05T03:17:05;102062.17;;;5.65;32.66
39954;BME280;25631;51.516;-0.470;2023-04-05T03:19:42;102060.95;;;5.91;32.59
39954;BME280;25631;51.516;-0.470;2023-04-05T03:22:18;102057.22;;;5.93;32.66
39954;BME280;25631;51.516;-0.470;2023-04-05T03:24:55;102054.83;;;5.66;32.69
39954;BME280;25631;51.516;-0.470;2023-04-05T03:27:31;102052.46;;;5.92;32.66
39954;BME280;25631;51.516;-0.470;2023-04-05T03:30:08;102054.81;;;5.72;32.75
39954;BME280;25631;51.516;-0.470;2023-04-05T03:32:45;102052.23;;;5.58;32.75
39954;BME280;25631;51.516;-0.470;2023-04-05T03:35:21;102047.94;;;5.53;32.73
39954;BME280;25631;51.516;-0.470;2023-04-05T03:37:58;102042.92;;;5.69;32.72
39954;BME280;25631;51.516;-0.470;2023-04-05T03:40:34;102039.06;;;5.65;32.76
39954;BME280;25631;51.516;-0.470;2023-04-05T03:43:11;102038.85;;;5.88;32.74
39954;BME280;25631;51.516;-0.470;2023-04-05T03:45:47;102038.03;;;5.82;32.77
39954;BME280;25631;51.516;-0.470;2023-04-05T03:48:24;102038.02;;;5.74;32.79
39954;BME280;25631;51.516;-0.470;2023-04-05T03:51:00;102036.44;;;5.94;32.72
39954;BME280;25631;51.516;-0.470;2023-04-05T03:53:37;102032.92;;;5.93;32.69
39954;BME280;25631;51.516;-0.470;2023-04-05T03:56:13;102035.04;;;5.91;32.81
39954;BME280;25631;51.516;-0.470;2023-04-05T03:58:51;102030.78;;;6.01;32.81
39954;BME280;25631;51.516;-0.470;2023-04-05T04:01:28;102031.45;;;5.85;32.82
39954;BME280;25631;51.516;-0.470;2023-04-05T04:04:05;102030.97;;;5.95;32.82
39954;BME280;25631;51.516;-0.470;2023-04-05T04:06:41;102031.88;;;5.94;32.76
39954;BME280;25631;51.516;-0.470;2023-04-05T04:09:18;102032.73;;;6.00;32.74
39954;BME280;25631;51.516;-0.470;2023-04-05T04:11:54;102031.55;;;5.92;32.75
39954;BME280;25631;51.516;-0.470;2023-04-05T04:14:33;102030.42;;;6.14;32.76
39954;BME280;25631;51.516;-0.470;2023-04-05T04:17:10;102029.92;;;5.85;32.75
39954;BME280;25631;51.516;-0.470;2023-04-05T04:19:47;102026.88;;;6.00;32.72
39954;BME280;25631;51.516;-0.470;2023-04-05T04:22:24;102026.29;;;6.09;32.83
39954;BME280;25631;51.516;-0.470;2023-04-05T04:25:02;102027.89;;;5.95;32.79
39954;BME280;25631;51.516;-0.470;2023-04-05T04:27:40;102027.25;;;5.69;32.84
39954;BME280;25631;51.516;-0.470;2023-04-05T04:30:17;102025.30;;;5.94;32.83
39954;BME280;25631;51.516;-0.470;2023-04-05T04:32:54;102028.03;;;5.67;32.80
39954;BME280;25631;51.516;-0.470;2023-04-05T04:35:31;102026.03;;;5.74;32.79
39954;BME280;25631;51.516;-0.470;2023-04-05T04:38:08;102026.01;;;5.95;32.50
39954;BME280;25631;51.516;-0.470;2023-04-05T04:40:44;102026.69;;;5.75;32.49
39954;BME280;25631;51.516;-0.470;2023-04-05T04:43:21;102023.94;;;6.00;32.54
39954;BME280;25631;51.516;-0.470;2023-04-05T04:45:58;102024.62;;;6.03;32.53
39954;BME280;25631;51.516;-0.470;2023-04-05T04:48:34;102027.84;;;5.71;32.52
39954;BME280;25631;51.516;-0.470;2023-04-05T04:51:11;102031.19;;;6.02;32.41
39954;BME280;25631;51.516;-0.470;2023-04-05T04:53:47;102030.85;;;5.99;32.50
39954;BME280;25631;51.516;-0.470;2023-04-05T04:56:24;102034.65;;;5.92;32.50
39954;BME280;25631;51.516;-0.470;2023-04-05T04:59:00;102035.01;;;6.10;32.51
39954;BME280;25631;51.516;-0.470;2023-04-05T05:01:36;102034.27;;;5.89;32.51
39954;BME280;25631;51.516;-0.470;2023-04-05T05:04:14;102030.76;;;5.87;32.48
39954;BME280;25631;51.516;-0.470;2023-04-05T05:06:52;102026.28;;;6.00;32.50
39954;BME280;25631;51.516;-0.470;2023-04-05T05:09:29;102025.12;;;6.33;32.55
39954;BME280;25631;51.516;-0.470;2023-04-05T05:12:05;102025.67;;;6.05;32.61
39954;BME280;25631;51.516;-0.470;2023-04-05T05:14:42;102025.93;;;6.23;32.71
39954;BME280;25631;51.516;-0.470;2023-04-05T05:17:18;102024.08;;;5.69;32.73
39954;BME280;25631;51.516;-0.470;2023-04-05T05:19:55;102020.49;;;6.40;32.75
39954;BME280;25631;51.516;-0.470;2023-04-05T05:22:32;102018.22;;;6.46;32.84
39954;BME280;25631;51.516;-0.470;2023-04-05T05:25:09;102019.37;;;5.77;32.93
39954;BME280;25631;51.516;-0.470;2023-04-05T05:27:48;102022.40;;;6.10;32.97
39954;BME280;25631;51.516;-0.470;2023-04-05T05:30:24;102022.17;;;5.93;32.96
39954;BME280;25631;51.516;-0.470;2023-04-05T05:33:01;102024.65;;;5.88;32.96
39954;BME280;25631;51.516;-0.470;2023-04-05T05:35:37;102025.54;;;6.09;32.99
39954;BME280;25631;51.516;-0.470;2023-04-05T05:38:14;102020.34;;;6.05;33.03
39954;BME280;25631;51.516;-0.470;2023-04-05T05:40:54;102016.85;;;6.17;33.15
39954;BME280;25631;51.516;-0.470;2023-04-05T05:43:31;102018.40;;;6.04;33.22
39954;BME280;25631;51.516;-0.470;2023-04-05T05:46:08;102021.39;;;6.19;33.32
39954;BME280;25631;51.516;-0.470;2023-04-05T05:48:45;102021.98;;;6.02;33.49
39954;BME280;25631;51.516;-0.470;2023-04-05T05:51:21;102021.81;;;6.16;33.55
39954;BME280;25631;51.516;-0.470;2023-04-05T05:53:58;102024.54;;;6.08;33.59
39954;BME280;25631;51.516;-0.470;2023-04-05T05:56:34;102025.89;;;6.00;33.56
39954;BME280;25631;51.516;-0.470;2023-04-05T05:59:11;102025.58;;;6.05;33.56
39954;BME280;25631;51.516;-0.470;2023-04-05T06:01:47;102023.46;;;5.99;33.60
39954;BME280;25631;51.516;-0.470;2023-04-05T06:04:24;102015.28;;;5.95;33.53
39954;BME280;25631;51.516;-0.470;2023-04-05T06:07:00;102014.87;;;6.37;33.41
39954;BME280;25631;51.516;-0.470;2023-04-05T06:09:37;102013.04;;;6.17;33.37
39954;BME280;25631;51.516;-0.470;2023-04-05T06:12:13;102009.48;;;5.61;33.24
39954;BME280;25631;51.516;-0.470;2023-04-05T06:14:50;102010.56;;;6.19;33.22
39954;BME280;25631;51.516;-0.470;2023-04-05T06:17:26;102008.17;;;6.15;33.33
39954;BME280;25631;51.516;-0.470;2023-04-05T06:20:03;102009.46;;;6.22;33.39
39954;BME280;25631;51.516;-0.470;2023-04-05T06:22:40;102011.34;;;5.86;33.45
39954;BME280;25631;51.516;-0.470;2023-04-05T06:25:17;102013.72;;;5.91;33.38
39954;BME280;25631;51.516;-0.470;2023-04-05T06:27:53;102009.64;;;6.12;33.39
39954;BME280;25631;51.516;-0.470;2023-04-05T06:30:30;102011.66;;;5.90;33.32
39954;BME280;25631;51.516;-0.470;2023-04-05T06:33:06;102008.29;;;5.99;33.31
39954;BME280;25631;51.516;-0.470;2023-04-05T06:35:43;102008.20;;;5.92;33.44
39954;BME280;25631;51.516;-0.470;2023-04-05T06:38:19;102006.26;;;6.13;33.53
39954;BME280;25631;51.516;-0.470;2023-04-05T06:40:56;102006.60;;;6.21;33.51
39954;BME280;25631;51.516;-0.470;2023-04-05T06:43:32;102004.09;;;5.85;33.62
39954;BME280;25631;51.516;-0.470;2023-04-05T06:46:09;102006.13;;;6.08;33.71
39954;BME280;25631;51.516;-0.470;2023-04-05T06:48:45;102005.32;;;6.25;33.65
39954;BME280;25631;51.516;-0.470;2023-04-05T06:51:22;102001.55;;;6.16;33.71
39954;BME280;25631;51.516;-0.470;2023-04-05T06:53:58;101999.41;;;5.83;33.75
39954;BME280;25631;51.516;-0.470;2023-04-05T06:56:34;101995.98;;;6.10;33.77
39954;BME280;25631;51.516;-0.470;2023-04-05T06:59:11;101993.65;;;6.19;33.73
39954;BME280;25631;51.516;-0.470;2023-04-05T07:01:47;101994.56;;;6.08;33.74
39954;BME280;25631;51.516;-0.470;2023-04-05T07:04:24;101993.43;;;5.92;33.80
39954;BME280;25631;51.516;-0.470;2023-04-05T07:07:00;101991.74;;;6.02;33.78
39954;BME280;25631;51.516;-0.470;2023-04-05T07:09:38;101991.10;;;6.25;33.79
39954;BME280;25631;51.516;-0.470;2023-04-05T07:12:14;101989.71;;;6.25;33.83
39954;BME280;25631;51.516;-0.470;2023-04-05T07:14:51;101993.26;;;6.41;33.84
39954;BME280;25631;51.516;-0.470;2023-04-05T07:17:27;101991.66;;;6.14;33.79
39954;BME280;25631;51.516;-0.470;2023-04-05T07:20:05;101990.15;;;6.25;33.86
39954;BME280;25631;51.516;-0.470;2023-04-05T07:22:41;101989.58;;;6.22;33.93
39954;BME280;25631;51.516;-0.470;2023-04-05T07:25:18;101984.80;;;6.38;33.84
39954;BME280;25631;51.516;-0.470;2023-04-05T07:27:54;101982.84;;;6.61;33.94
39954;BME280;25631;51.516;-0.470;2023-04-05T07:30:31;101978.03;;;6.30;33.98
39954;BME280;25631;51.516;-0.470;2023-04-05T07:33:08;101982.20;;;6.22;33.90
39954;BME280;25631;51.516;-0.470;2023-04-05T07:35:44;101979.64;;;6.15;33.88
39954;BME280;25631;51.516;-0.470;2023-04-05T07:38:21;101977.43;;;6.53;33.86
39954;BME280;25631;51.516;-0.470;2023-04-05T07:40:57;101975.80;;;6.17;33.98
39954;BME280;25631;51.516;-0.470;2023-04-05T07:43:34;101976.38;;;6.35;34.04
39954;BME280;25631;51.516;-0.470;2023-04-05T07:46:11;101977.15;;;6.58;34.05
39954;BME280;25631;51.516;-0.470;2023-04-05T07:48:47;101980.10;;;6.31;34.10
39954;BME280;25631;51.516;-0.470;2023-04-05T07:51:24;101978.06;;;6.50;34.09
39954;BME280;25631;51.516;-0.470;2023-04-05T07:54:00;101976.51;;;6.54;33.93
39954;BME280;25631;51.516;-0.470;2023-04-05T07:56:37;101978.53;;;6.73;33.81
39954;BME280;25631;51.516;-0.470;2023-04-05T07:59:13;101976.19;;;6.47;34.05
39954;BME280;25631;51.516;-0.470;2023-04-05T08:01:50;101980.24;;;6.27;34.00
39954;BME280;25631;51.516;-0.470;2023-04-05T08:04:27;101978.06;;;6.28;33.81
39954;BME280;25631;51.516;-0.470;2023-04-05T08:07:03;101977.80;;;6.42;33.83
39954;BME280;25631;51.516;-0.470;2023-04-05T08:09:40;101975.86;;;6.85;33.66
39954;BME280;25631;51.516;-0.470;2023-04-05T08:12:16;101975.14;;;7.05;33.72
39954;BME280;25631;51.516;-0.470;2023-04-05T08:14:53;101975.01;;;6.91;33.73
39954;BME280;25631;51.516;-0.470;2023-04-05T08:17:29;101969.84;;;6.76;33.70
39954;BME280;25631;51.516;-0.470;2023-04-05T08:20:07;101971.97;;;7.10;33.59
39954;BME280;25631;51.516;-0.470;2023-04-05T08:22:44;101971.51;;;7.18;33.47
39954;BME280;25631;51.516;-0.470;2023-04-05T08:25:20;101971.27;;;7.28;33.40
39954;BME280;25631;51.516;-0.470;2023-04-05T08:27:57;101971.23;;;6.97;33.37
39954;BME280;25631;51.516;-0.470;2023-04-05T08:30:33;101971.30;;;7.22;33.34
39954;BME280;25631;51.516;-0.470;2023-04-05T08:33:10;101972.50;;;7.06;33.42
39954;BME280;25631;51.516;-0.470;2023-04-05T08:35:47;101968.14;;;7.15;33.23
39954;BME280;25631;51.516;-0.470;2023-04-05T08:38:23;101964.27;;;7.20;33.24
39954;BME280;25631;51.516;-0.470;2023-04-05T08:41:07;101961.18;;;7.61;33.12
39954;BME280;25631;51.516;-0.470;2023-04-05T08:43:53;101963.88;;;7.86;33.11
39954;BME280;25631;51.516;-0.470;2023-04-05T08:46:32;101964.10;;;7.29;33.13
39954;BME280;25631;51.516;-0.470;2023-04-05T08:49:08;101963.30;;;7.33;32.90
39954;BME280;25631;51.516;-0.470;2023-04-05T08:51:45;101962.49;;;7.84;32.59
39954;BME280;25631;51.516;-0.470;2023-04-05T08:54:21;101958.53;;;8.10;32.47
39954;BME280;25631;51.516;-0.470;2023-04-05T08:56:58;101958.61;;;7.97;32.40
39954;BME280;25631;51.516;-0.470;2023-04-05T08:59:37;101956.93;;;7.63;32.36
39954;BME280;25631;51.516;-0.470;2023-04-05T09:02:16;101956.60;;;7.84;32.26
39954;BME280;25631;51.516;-0.470;2023-04-05T09:04:54;101955.08;;;8.02;32.15
39954;BME280;25631;51.516;-0.470;2023-04-05T09:07:30;101950.42;;;7.86;32.06
39954;BME280;25631;51.516;-0.470;2023-04-05T09:10:08;101948.23;;;7.86;32.14
39954;BME280;25631;51.516;-0.470;2023-04-05T09:12:44;101945.10;;;8.14;32.01
39954;BME280;25631;51.516;-0.470;2023-04-05T09:15:22;101941.82;;;8.05;31.93
39954;BME280;25631;51.516;-0.470;2023-04-05T09:17:58;101942.25;;;8.49;31.92
39954;BME280;25631;51.516;-0.470;2023-04-05T09:20:35;101941.77;;;7.82;32.07
39954;BME280;25631;51.516;-0.470;2023-04-05T09:23:11;101940.23;;;8.19;32.09
39954;BME280;25631;51.516;-0.470;2023-04-05T09:25:48;101935.54;;;7.85;32.22
39954;BME280;25631;51.516;-0.470;2023-04-05T09:28:39;101935.32;;;8.21;32.13
39954;BME280;25631;51.516;-0.470;2023-04-05T09:31:33;101927.60;;;8.49;32.11
39954;BME280;25631;51.516;-0.470;2023-04-05T09:34:19;101927.31;;;8.50;32.02
39954;BME280;25631;51.516;-0.470;2023-04-05T09:36:56;101928.09;;;8.48;32.05
39954;BME280;25631;51.516;-0.470;2023-04-05T09:39:32;101920.50;;;8.08;32.42
39954;BME280;25631;51.516;-0.470;2023-04-05T09:42:09;101916.16;;;8.56;32.22
39954;BME280;25631;51.516;-0.470;2023-04-05T09:44:48;101922.73;;;8.32;32.37
39954;BME280;25631;51.516;-0.470;2023-04-05T09:47:29;101922.93;;;8.38;32.03
39954;BME280;25631;51.516;-0.470;2023-04-05T09:50:18;101915.88;;;8.79;31.84
39954;BME280;25631;51.516;-0.470;2023-04-05T09:53:06;101913.70;;;8.65;31.91
39954;BME280;25631;51.516;-0.470;2023-04-05T09:55:43;101913.91;;;8.69;31.96
39954;BME280;25631;51.516;-0.470;2023-04-05T09:58:20;101917.84;;;8.86;32.02
39954;BME280;25631;51.516;-0.470;2023-04-05T10:00:57;101914.45;;;9.02;31.65
39954;BME280;25631;51.516;-0.470;2023-04-05T10:03:45;101908.45;;;9.23;31.52
39954;BME280;25631;51.516;-0.470;2023-04-05T10:06:22;101911.75;;;9.41;31.41
39954;BME280;25631;51.516;-0.470;2023-04-05T10:08:58;101909.42;;;9.29;31.44
39954;BME280;25631;51.516;-0.470;2023-04-05T10:11:36;101905.56;;;9.57;31.49
39954;BME280;25631;51.516;-0.470;2023-04-05T10:14:13;101901.53;;;9.47;31.53
39954;BME280;25631;51.516;-0.470;2023-04-05T10:16:55;101897.54;;;9.58;31.20
39954;BME280;25631;51.516;-0.470;2023-04-05T10:19:41;101895.86;;;9.90;31.16
39954;BME280;25631;51.516;-0.470;2023-04-05T10:22:23;101894.29;;;9.91;30.96
39954;BME280;25631;51.516;-0.470;2023-04-05T10:25:08;101895.66;;;10.36;30.36
39954;BME280;25631;51.516;-0.470;2023-04-05T10:27:53;101897.09;;;9.96;30.49
39954;BME280;25631;51.516;-0.470;2023-04-05T10:30:35;101896.95;;;9.88;30.40
39954;BME280;25631;51.516;-0.470;2023-04-05T10:33:18;101895.59;;;9.82;30.22
39954;BME280;25631;51.516;-0.470;2023-04-05T10:36:02;101892.99;;;9.62;30.37
39954;BME280;25631;51.516;-0.470;2023-04-05T10:38:49;101891.06;;;9.37;30.22
39954;BME280;25631;51.516;-0.470;2023-04-05T10:41:35;101888.32;;;9.62;30.05
39954;BME280;25631;51.516;-0.470;2023-04-05T10:44:12;101885.86;;;9.71;30.24
39954;BME280;25631;51.516;-0.470;2023-04-05T10:46:51;101884.42;;;9.86;29.93
39954;BME280;25631;51.516;-0.470;2023-04-05T10:49:32;101883.93;;;9.57;29.85
39954;BME280;25631;51.516;-0.470;2023-04-05T10:52:09;101878.85;;;9.97;29.44
39954;BME280;25631;51.516;-0.470;2023-04-05T10:54:47;101876.50;;;10.00;29.34
39954;BME280;25631;51.516;-0.470;2023-04-05T10:57:24;101872.85;;;9.90;29.30
39954;BME280;25631;51.516;-0.470;2023-04-05T11:00:02;101871.61;;;9.63;29.29
39954;BME280;25631;51.516;-0.470;2023-04-05T11:02:38;101868.98;;;9.87;29.44
39954;BME280;25631;51.516;-0.470;2023-04-05T11:05:33;101868.38;;;9.82;28.43
39954;BME280;25631;51.516;-0.470;2023-04-05T11:08:10;101869.86;;;9.99;28.68
39954;BME280;25631;51.516;-0.470;2023-04-05T11:10:51;101866.48;;;9.90;28.27
39954;BME280;25631;51.516;-0.470;2023-04-05T11:13:47;101860.41;;;10.09;28.26
39954;BME280;25631;51.516;-0.470;2023-04-05T11:16:38;101860.24;;;10.23;28.31
39954;BME280;25631;51.516;-0.470;2023-04-05T11:19:16;101855.08;;;10.52;28.37
39954;BME280;25631;51.516;-0.470;2023-04-05T11:22:00;101850.77;;;10.65;28.39
39954;BME280;25631;51.516;-0.470;2023-04-05T11:24:49;101851.64;;;10.96;28.02
39954;BME280;25631;51.516;-0.470;2023-04-05T11:27:27;101847.85;;;11.13;28.05
39954;BME280;25631;51.516;-0.470;2023-04-05T11:30:05;101842.24;;;11.11;27.49
39954;BME280;25631;51.516;-0.470;2023-04-05T11:32:43;101843.99;;;10.87;27.41
39954;BME280;25631;51.516;-0.470;2023-04-05T11:35:20;101845.40;;;11.20;27.33
39954;BME280;25631;51.516;-0.470;2023-04-05T11:38:05;101841.46;;;10.83;27.08
39954;BME280;25631;51.516;-0.470;2023-04-05T11:40:42;101841.79;;;10.97;27.09
39954;BME280;25631;51.516;-0.470;2023-04-05T11:43:18;101834.64;;;11.04;27.28
39954;BME280;25631;51.516;-0.470;2023-04-05T11:45:55;101830.53;;;11.24;27.56
39954;BME280;25631;51.516;-0.470;2023-04-05T11:48:32;101833.84;;;10.93;27.93
39954;BME280;25631;51.516;-0.470;2023-04-05T11:51:09;101830.08;;;10.96;27.31
39954;BME280;25631;51.516;-0.470;2023-04-05T11:53:46;101826.24;;;11.08;27.32
39954;BME280;25631;51.516;-0.470;2023-04-05T11:56:23;101825.13;;;11.24;27.13
39954;BME280;25631;51.516;-0.470;2023-04-05T11:58:59;101819.34;;;10.69;27.05
39954;BME280;25631;51.516;-0.470;2023-04-05T12:01:36;101814.53;;;11.59;27.10
39954;BME280;25631;51.516;-0.470;2023-04-05T12:04:13;101809.99;;;11.21;27.15
39954;BME280;25631;51.516;-0.470;2023-04-05T12:07:07;101806.60;;;11.77;26.81
39954;BME280;25631;51.516;-0.470;2023-04-05T12:10:03;101806.25;;;11.67;27.32
39954;BME280;25631;51.516;-0.470;2023-04-05T12:12:41;101803.10;;;11.63;27.14
39954;BME280;25631;51.516;-0.470;2023-04-05T12:15:18;101801.61;;;11.73;26.49
39954;BME280;25631;51.516;-0.470;2023-04-05T12:17:55;101799.59;;;11.89;26.70
39954;BME280;25631;51.516;-0.470;2023-04-05T12:20:31;101794.49;;;11.74;26.59
39954;BME280;25631;51.516;-0.470;2023-04-05T12:23:08;101789.95;;;12.07;26.60
39954;BME280;25631;51.516;-0.470;2023-04-05T12:25:46;101789.79;;;12.04;26.68
39954;BME280;25631;51.516;-0.470;2023-04-05T12:28:23;101789.23;;;12.44;26.59
39954;BME280;25631;51.516;-0.470;2023-04-05T12:31:00;101786.49;;;11.89;26.27
39954;BME280;25631;51.516;-0.470;2023-04-05T12:33:41;101783.51;;;12.02;26.72
39954;BME280;25631;51.516;-0.470;2023-04-05T12:36:18;101784.49;;;12.22;26.43
39954;BME280;25631;51.516;-0.470;2023-04-05T12:38:54;101780.00;;;12.34;26.30
39954;BME280;25631;51.516;-0.470;2023-04-05T12:41:32;101781.11;;;12.77;26.34
39954;BME280;25631;51.516;-0.470;2023-04-05T12:44:11;101776.73;;;12.69;25.60
39954;BME280;25631;51.516;-0.470;2023-04-05T12:46:50;101777.65;;;12.51;24.60
39954;BME280;25631;51.516;-0.470;2023-04-05T12:49:27;101773.29;;;12.49;24.46
39954;BME280;25631;51.516;-0.470;2023-04-05T12:52:03;101771.31;;;12.55;24.31
39954;BME280;25631;51.516;-0.470;2023-04-05T12:54:40;101766.41;;;12.65;24.78
39954;BME280;25631;51.516;-0.470;2023-04-05T12:57:16;101767.58;;;12.46;24.87
39954;BME280;25631;51.516;-0.470;2023-04-05T12:59:53;101760.88;;;13.07;24.94
39954;BME280;25631;51.516;-0.470;2023-04-05T13:02:29;101758.06;;;13.18;25.18
39954;BME280;25631;51.516;-0.470;2023-04-05T13:05:06;101752.82;;;13.14;24.43
39954;BME280;25631;51.516;-0.470;2023-04-05T13:07:42;101746.26;;;13.66;24.68
39954;BME280;25631;51.516;-0.470;2023-04-05T13:10:20;101748.74;;;13.70;24.60
39954;BME280;25631;51.516;-0.470;2023-04-05T13:12:56;101748.77;;;13.97;24.37
39954;BME280;25631;51.516;-0.470;2023-04-05T13:15:33;101741.52;;;13.73;24.03
39954;BME280;25631;51.516;-0.470;2023-04-05T13:18:10;101735.63;;;14.14;24.03
39954;BME280;25631;51.516;-0.470;2023-04-05T13:20:46;101735.94;;;13.56;24.25
39954;BME280;25631;51.516;-0.470;2023-04-05T13:23:23;101725.58;;;14.09;24.59
39954;BME280;25631;51.516;-0.470;2023-04-05T13:25:59;101722.73;;;13.75;24.84
39954;BME280;25631;51.516;-0.470;2023-04-05T13:28:36;101718.95;;;13.70;25.03
39954;BME280;25631;51.516;-0.470;2023-04-05T13:31:12;101713.41;;;13.96;24.79
39954;BME280;25631;51.516;-0.470;2023-04-05T13:33:48;101712.61;;;14.06;24.79
39954;BME280;25631;51.516;-0.470;2023-04-05T13:36:25;101712.83;;;13.88;24.25
39954;BME280;25631;51.516;-0.470;2023-04-05T13:39:01;101706.49;;;14.07;24.52
39954;BME280;25631;51.516;-0.470;2023-04-05T13:41:38;101703.90;;;13.86;24.93
39954;BME280;25631;51.516;-0.470;2023-04-05T13:44:14;101702.22;;;13.95;25.08